createdAt,value
2018-02-24T00:00:13.983Z,16.73
2018-02-24T00:02:41.538Z,17.67
2018-02-24T00:05:09.072Z,18.67
2018-02-24T00:07:36.624Z,19.73
2018-02-24T00:10:04.168Z,22.53
2018-02-24T00:12:31.721Z,22.43
2018-02-24T00:14:59.259Z,14.03
2018-02-24T00:17:27.230Z,20.80
2018-02-24T00:19:55.198Z,20.97
2018-02-24T00:22:23.146Z,18.17
2018-02-24T00:24:50.683Z,20.97
2018-02-24T00:27:18.234Z,20.73
2018-02-24T00:29:45.778Z,16.50
2018-02-24T00:32:13.339Z,16.33
2018-02-24T00:34:40.870Z,16.67
2018-02-24T00:37:08.403Z,21.47
2018-02-24T00:39:35.959Z,15.00
2018-02-24T00:42:03.487Z,20.57
2018-02-24T00:44:31.043Z,14.50
2018-02-24T00:46:58.582Z,21.67
2018-02-24T00:49:26.126Z,18.90
2018-02-24T00:51:53.659Z,21.47
2018-02-24T00:54:21.615Z,20.70
2018-02-24T00:56:49.563Z,22.53
2018-02-24T00:59:17.123Z,21.93
2018-02-24T01:01:44.659Z,18.70
2018-02-24T01:04:12.219Z,15.67
2018-02-24T01:06:39.759Z,15.70
2018-02-24T01:09:07.319Z,25.67
2018-02-24T01:11:34.847Z,16.50
2018-02-24T01:14:02.792Z,17.80
2018-02-24T01:16:30.330Z,23.97
2018-02-24T01:18:57.899Z,20.17
2018-02-24T01:21:25.431Z,19.77
2018-02-24T01:23:52.986Z,16.07
2018-02-24T01:26:20.631Z,21.53
2018-02-24T01:28:48.183Z,16.60
2018-02-24T01:31:15.733Z,21.77
2018-02-24T01:33:43.307Z,23.20
2018-02-24T01:36:10.839Z,16.83
2018-02-24T01:38:38.403Z,22.70
2018-02-24T01:41:05.930Z,20.77
2018-02-24T01:43:33.880Z,15.10
2018-02-24T01:46:01.419Z,27.77
2018-02-24T01:48:28.971Z,22.73
2018-02-24T01:50:56.503Z,32.47
2018-02-24T01:53:24.059Z,23.60
2018-02-24T01:55:51.600Z,19.93
2018-02-24T01:58:19.548Z,19.53
2018-02-24T02:00:47.486Z,22.93
2018-02-24T02:03:15.080Z,22.63
2018-02-24T02:05:43.011Z,22.20
2018-02-24T02:08:10.639Z,26.23
2018-02-24T02:10:38.184Z,20.43
2018-02-24T02:13:05.718Z,26.67
2018-02-24T02:15:33.675Z,24.00
2018-02-24T02:18:01.218Z,25.53
2018-02-24T02:20:28.779Z,19.83
2018-02-24T02:22:56.406Z,22.70
2018-02-24T02:25:24.068Z,24.03
2018-02-24T02:27:51.603Z,23.93
2018-02-24T02:30:19.159Z,20.37
2018-02-24T02:32:46.708Z,14.47
2018-02-24T02:35:14.665Z,16.73
2018-02-24T02:37:42.592Z,21.93
2018-02-24T02:40:10.147Z,19.37
2018-02-24T02:42:37.690Z,17.17
2018-02-24T02:45:05.414Z,23.10
2018-02-24T02:47:32.911Z,20.97
2018-02-24T02:50:00.470Z,25.23
2018-02-24T02:52:28.026Z,22.10
2018-02-24T02:54:55.582Z,24.37
2018-02-24T02:57:23.119Z,20.73
2018-02-24T02:59:50.701Z,26.30
2018-02-24T03:02:18.319Z,26.93
2018-02-24T03:04:46.442Z,23.13
2018-02-24T03:07:13.983Z,25.33
2018-02-24T03:09:41.644Z,22.03
2018-02-24T03:12:09.183Z,25.87
2018-02-24T03:14:36.734Z,32.43
2018-02-24T03:17:04.270Z,24.13
2018-02-24T03:19:32.218Z,25.47
2018-02-24T03:21:59.841Z,14.83
2018-02-24T03:24:27.399Z,22.80
2018-02-24T03:26:54.950Z,26.93
2018-02-24T03:29:23.846Z,26.40
2018-02-24T03:31:51.506Z,24.40
2018-02-24T03:34:19.166Z,24.13
2018-02-24T03:36:46.708Z,25.40
2018-02-24T03:39:14.263Z,20.87
2018-02-24T03:41:41.811Z,25.03
2018-02-24T03:44:09.760Z,22.13
2018-02-24T03:46:37.691Z,19.70
2018-02-24T03:49:05.225Z,20.40
2018-02-24T03:51:32.781Z,14.00
2018-02-24T03:54:00.318Z,22.30
2018-02-24T03:56:28.266Z,18.80
2018-02-24T03:58:56.190Z,23.60
2018-02-24T04:01:23.750Z,23.50
2018-02-24T04:03:51.279Z,22.90
2018-02-24T04:06:18.831Z,21.17
2018-02-24T04:08:46.360Z,17.33
2018-02-24T04:11:14.322Z,19.30
2018-02-24T04:13:41.873Z,30.90
2018-02-24T04:16:09.436Z,24.93
2018-02-24T04:18:37.016Z,20.33
2018-02-24T04:21:04.991Z,18.47
2018-02-24T04:23:32.527Z,20.93
2018-02-24T04:26:00.482Z,27.23
2018-02-24T04:28:28.014Z,24.93
2018-02-24T04:30:55.575Z,24.77
2018-02-24T04:33:23.105Z,23.10
2018-02-24T04:35:50.682Z,21.13
2018-02-24T04:38:18.229Z,15.07
2018-02-24T04:40:45.778Z,21.17
2018-02-24T04:43:13.315Z,17.80
2018-02-24T04:45:40.871Z,22.67
2018-02-24T04:48:08.868Z,19.53
2018-02-24T04:50:36.424Z,20.30
2018-02-24T04:53:03.969Z,20.57
2018-02-24T04:55:31.531Z,17.53
2018-02-24T04:57:59.062Z,21.73
2018-02-24T05:00:27.019Z,19.10
2018-02-24T05:02:54.959Z,28.23
2018-02-24T05:05:22.515Z,21.77
2018-02-24T05:07:50.056Z,24.50
2018-02-24T05:10:17.624Z,26.93
2018-02-24T05:12:45.164Z,19.43
2018-02-24T05:15:12.728Z,20.60
2018-02-24T05:17:40.264Z,23.70
2018-02-24T05:20:07.835Z,15.90
2018-02-24T05:22:35.363Z,22.63
2018-02-24T05:25:03.353Z,24.20
2018-02-24T05:27:30.907Z,19.03
2018-02-24T05:29:58.443Z,25.67
2018-02-24T05:32:26.400Z,15.10
2018-02-24T05:34:54.331Z,17.97
2018-02-24T05:37:21.887Z,20.00
2018-02-24T05:39:49.427Z,31.03
2018-02-24T05:42:16.988Z,31.13
2018-02-24T05:44:44.523Z,23.63
2018-02-24T05:47:12.079Z,25.60
2018-02-24T05:49:39.609Z,25.20
2018-02-24T05:52:07.564Z,20.40
2018-02-24T05:54:35.095Z,28.40
2018-02-24T05:57:02.660Z,21.30
2018-02-24T05:59:30.199Z,18.00
2018-02-24T06:01:57.771Z,19.93
2018-02-24T06:04:25.303Z,24.10
2018-02-24T06:06:52.854Z,19.67
2018-02-24T06:09:20.397Z,22.87
2018-02-24T06:11:47.955Z,25.93
2018-02-24T06:14:15.874Z,23.80
2018-02-24T06:16:43.439Z,22.87
2018-02-24T06:19:10.975Z,18.67
2018-02-24T06:21:38.654Z,18.73
2018-02-24T06:24:06.190Z,19.23
2018-02-24T06:26:33.739Z,17.67
2018-02-24T06:29:01.289Z,23.20
2018-02-24T06:31:28.853Z,24.13
2018-02-24T06:33:56.384Z,23.50
2018-02-24T06:36:24.020Z,29.63
2018-02-24T06:38:51.551Z,17.87
2018-02-24T06:41:19.098Z,20.33
2018-02-24T06:43:46.636Z,20.53
2018-02-24T06:46:14.199Z,23.03
2018-02-24T06:48:41.729Z,20.87
2018-02-24T06:51:09.290Z,24.00
2018-02-24T06:53:36.825Z,19.33
2018-02-24T06:56:04.787Z,24.87
2018-02-24T06:58:32.331Z,23.77
2018-02-24T07:00:59.907Z,15.47
2018-02-24T07:03:27.847Z,18.57
2018-02-24T07:05:55.380Z,18.97
2018-02-24T07:08:22.926Z,15.57
2018-02-24T07:10:50.467Z,26.43
2018-02-24T07:13:18.421Z,20.17
2018-02-24T07:15:46.368Z,20.97
2018-02-24T07:18:14.089Z,32.67
2018-02-24T07:20:42.639Z,30.63
2018-02-24T07:23:10.600Z,27.10
2018-02-24T07:25:38.606Z,25.80
2018-02-24T07:28:06.164Z,25.13
2018-02-24T07:30:33.703Z,26.00
2018-02-24T07:33:01.263Z,29.30
2018-02-24T07:35:28.838Z,26.33
2018-02-24T07:37:56.414Z,29.67
2018-02-24T07:40:24.058Z,28.20
2018-02-24T07:42:51.715Z,28.73
2018-02-24T07:45:19.251Z,32.60
2018-02-24T07:47:46.819Z,21.80
2018-02-24T07:50:14.355Z,34.50
2018-02-24T07:52:42.342Z,24.30
2018-02-24T07:55:09.882Z,31.57
2018-02-24T07:57:37.836Z,29.37
2018-02-24T08:00:05.832Z,28.27
2018-02-24T08:02:33.521Z,34.90
2018-02-24T08:05:01.051Z,31.23
2018-02-24T08:07:28.624Z,30.03
2018-02-24T08:09:56.169Z,26.50
2018-02-24T08:12:23.764Z,21.20
2018-02-24T08:14:51.319Z,26.40
2018-02-24T08:17:18.935Z,45.47
2018-02-24T08:19:46.516Z,30.53
2018-02-24T08:22:14.076Z,18.73
2018-02-24T08:24:41.708Z,28.20
2018-02-24T08:27:09.663Z,24.67
2018-02-24T08:29:37.237Z,20.40
2018-02-24T08:32:04.819Z,26.00
2018-02-24T08:34:32.364Z,22.53
2018-02-24T08:36:59.926Z,21.93
2018-02-24T08:39:27.464Z,27.80
2018-02-24T08:41:55.041Z,24.13
2018-02-24T08:44:22.733Z,26.30
2018-02-24T08:46:50.267Z,36.00
2018-02-24T08:49:17.822Z,18.30
2018-02-24T08:51:45.381Z,25.80
2018-02-24T08:54:12.933Z,21.97
2018-02-24T08:56:40.479Z,22.97
2018-02-24T08:59:08.210Z,24.50
2018-02-24T09:01:36.335Z,23.57
2018-02-24T09:04:03.891Z,23.20
2018-02-24T09:06:31.441Z,32.37
2018-02-24T09:08:59.009Z,21.17
2018-02-24T09:11:26.664Z,28.73
2018-02-24T09:13:54.226Z,29.43
2018-02-24T09:16:21.984Z,27.23
2018-02-24T09:18:49.558Z,22.70
2018-02-24T09:21:17.098Z,23.43
2018-02-24T09:23:44.660Z,21.50
2018-02-24T09:26:12.197Z,20.13
2018-02-24T09:28:39.756Z,29.10
2018-02-24T09:31:07.288Z,23.00
2018-02-24T09:33:35.239Z,24.93
2018-02-24T09:36:02.778Z,23.87
2018-02-24T09:38:30.337Z,22.27
2018-02-24T09:40:57.896Z,21.97
2018-02-24T09:43:25.528Z,28.73
2018-02-24T09:45:53.067Z,29.63
2018-02-24T09:48:20.747Z,29.43
2018-02-24T09:50:48.282Z,23.13
2018-02-24T09:53:15.893Z,27.07
2018-02-24T09:55:43.413Z,24.43
2018-02-24T09:58:10.984Z,24.73
2018-02-24T10:00:38.551Z,20.77
2018-02-24T10:03:06.106Z,25.57
2018-02-24T10:05:33.735Z,22.63
2018-02-24T10:08:01.307Z,23.03
2018-02-24T10:10:28.963Z,20.47
2018-02-24T10:12:56.633Z,23.77
2018-02-24T10:15:24.181Z,17.00
2018-02-24T10:17:51.846Z,21.67
2018-02-24T10:20:19.411Z,21.07
2018-02-24T10:22:46.961Z,21.37
2018-02-24T10:25:14.622Z,22.50
2018-02-24T10:27:42.256Z,24.20
2018-02-24T10:30:09.818Z,25.10
2018-02-24T10:32:37.350Z,23.73
2018-02-24T10:35:05.363Z,31.80
2018-02-24T10:37:35.795Z,26.07
2018-02-24T10:40:03.487Z,25.30
2018-02-24T10:42:31.088Z,27.87
2018-02-24T10:44:58.666Z,22.00
2018-02-24T10:47:26.208Z,28.80
2018-02-24T10:49:53.763Z,25.87
2018-02-24T10:52:21.301Z,26.93
2018-02-24T10:54:49.260Z,26.83
2018-02-24T10:57:17.272Z,25.00
2018-02-24T10:59:44.932Z,32.37
2018-02-24T11:02:12.472Z,22.57
2018-02-24T11:04:40.036Z,34.90
2018-02-24T11:07:07.576Z,23.77
2018-02-24T11:09:35.148Z,21.90
2018-02-24T11:12:02.689Z,22.17
2018-02-24T11:14:30.648Z,22.33
2018-02-24T11:16:58.653Z,19.53
2018-02-24T11:19:26.224Z,27.67
2018-02-24T11:21:53.775Z,29.33
2018-02-24T11:24:21.323Z,22.93
2018-02-24T11:26:48.862Z,27.13
2018-02-24T11:29:16.424Z,26.33
2018-02-24T11:31:43.967Z,27.60
2018-02-24T11:34:11.931Z,19.07
2018-02-24T11:36:39.863Z,27.60
2018-02-24T11:39:07.414Z,25.87
2018-02-24T11:41:35.049Z,21.07
2018-02-24T11:44:02.603Z,27.40
2018-02-24T11:46:30.163Z,20.07
2018-02-24T11:48:57.822Z,21.73
2018-02-24T11:51:25.363Z,22.10
2018-02-24T11:53:52.927Z,27.40
2018-02-24T11:56:20.470Z,25.50
2018-02-24T11:58:48.004Z,22.20
2018-02-24T12:01:17.262Z,22.83
2018-02-24T12:03:44.880Z,20.67
2018-02-24T12:06:12.824Z,27.03
2018-02-24T12:08:40.356Z,27.80
2018-02-24T12:11:07.970Z,20.03
2018-02-24T12:13:35.511Z,17.77
2018-02-24T12:16:03.508Z,22.63
2018-02-24T12:18:34.249Z,19.03
2018-02-24T12:21:03.731Z,23.20
2018-02-24T12:23:31.937Z,25.23
2018-02-24T12:26:00.456Z,26.47
2018-02-24T12:28:28.383Z,20.13
2018-02-24T12:30:55.966Z,20.87
2018-02-24T12:33:23.490Z,22.00
2018-02-24T12:35:51.249Z,20.30
2018-02-24T12:38:18.809Z,18.73
2018-02-24T12:40:46.364Z,23.70
2018-02-24T12:43:14.025Z,17.30
2018-02-24T12:45:41.595Z,27.37
2018-02-24T12:48:09.122Z,15.73
2018-02-24T12:50:36.671Z,20.57
2018-02-24T12:53:04.276Z,22.03
2018-02-24T12:55:31.827Z,22.63
2018-02-24T12:57:59.372Z,23.40
2018-02-24T13:00:26.950Z,21.10
2018-02-24T13:02:54.505Z,18.20
2018-02-24T13:05:22.063Z,19.50
2018-02-24T13:07:49.634Z,24.37
2018-02-24T13:10:17.248Z,20.77
2018-02-24T13:12:44.824Z,15.77
2018-02-24T13:15:12.393Z,20.13
2018-02-24T13:17:40.798Z,22.77
2018-02-24T13:20:08.991Z,22.30
2018-02-24T13:22:36.926Z,22.87
2018-02-24T13:25:04.517Z,21.43
2018-02-24T13:27:32.499Z,17.03
2018-02-24T13:30:01.088Z,34.27
2018-02-24T13:32:28.639Z,18.73
2018-02-24T13:34:56.422Z,25.73
2018-02-24T13:37:23.989Z,22.87
2018-02-24T13:39:51.524Z,20.90
2018-02-24T13:42:19.095Z,23.57
2018-02-24T13:44:46.628Z,16.23
2018-02-24T13:47:14.185Z,18.57
2018-02-24T13:49:42.119Z,15.27
2018-02-24T13:52:09.686Z,20.07
2018-02-24T13:54:37.228Z,16.83
2018-02-24T13:57:04.783Z,16.03
2018-02-24T13:59:32.304Z,18.23
2018-02-24T14:02:01.049Z,12.23
2018-02-24T14:04:28.963Z,14.00
2018-02-24T14:06:56.514Z,17.53
2018-02-24T14:09:24.449Z,21.00
2018-02-24T14:11:52.047Z,14.03
2018-02-24T14:14:19.596Z,23.43
2018-02-24T14:16:47.139Z,21.77
2018-02-24T14:19:14.683Z,15.07
2018-02-24T14:21:42.631Z,20.87
2018-02-24T14:24:10.559Z,17.37
2018-02-24T14:26:38.127Z,17.30
2018-02-24T14:29:05.760Z,15.73
2018-02-24T14:31:33.318Z,17.03
2018-02-24T14:34:00.875Z,18.20
2018-02-24T14:36:28.461Z,13.90
2018-02-24T14:38:56.012Z,20.07
2018-02-24T14:41:23.583Z,17.83
2018-02-24T14:43:51.120Z,14.50
2018-02-24T14:46:18.676Z,16.77
2018-02-24T14:48:46.195Z,14.73
2018-02-24T14:51:13.746Z,16.17
2018-02-24T14:53:41.279Z,16.37
2018-02-24T14:56:08.971Z,16.40
2018-02-24T14:58:36.916Z,11.27
2018-02-24T15:01:04.883Z,14.27
2018-02-24T15:03:32.800Z,17.63
2018-02-24T15:06:00.361Z,10.40
2018-02-24T15:08:27.893Z,17.67
2018-02-24T15:10:55.447Z,12.90
2018-02-24T15:13:22.983Z,12.23
2018-02-24T15:15:50.935Z,14.63
2018-02-24T15:18:18.914Z,14.07
2018-02-24T15:20:46.857Z,13.13
2018-02-24T15:23:14.507Z,15.03
2018-02-24T15:25:42.061Z,12.17
2018-02-24T15:28:09.627Z,8.03
2018-02-24T15:30:37.207Z,11.87
2018-02-24T15:33:05.160Z,10.40
2018-02-24T15:35:33.091Z,15.40
2018-02-24T15:38:00.665Z,10.23
2018-02-24T15:40:28.244Z,15.50
2018-02-24T15:42:56.258Z,11.30
2018-02-24T15:45:23.893Z,11.73
2018-02-24T15:47:51.464Z,10.73
2018-02-24T15:50:19.027Z,11.50
2018-02-24T15:52:46.584Z,8.87
2018-02-24T15:55:14.805Z,9.00
2018-02-24T15:57:42.765Z,11.90
2018-02-24T16:00:10.716Z,10.83
2018-02-24T16:02:38.296Z,13.33
2018-02-24T16:05:05.843Z,10.63
2018-02-24T16:07:33.418Z,10.83
2018-02-24T16:10:00.960Z,8.97
2018-02-24T16:12:28.916Z,8.77
2018-02-24T16:14:56.851Z,8.13
2018-02-24T16:17:24.430Z,12.63
2018-02-24T16:19:52.406Z,11.23
2018-02-24T16:22:19.987Z,14.70
2018-02-24T16:24:47.557Z,9.60
2018-02-24T16:27:15.107Z,11.00
2018-02-24T16:29:42.635Z,15.67
2018-02-24T16:32:10.186Z,9.23
2018-02-24T16:34:38.123Z,6.07
2018-02-24T16:37:06.866Z,10.37
2018-02-24T16:39:34.406Z,10.27
2018-02-24T16:42:01.992Z,13.47
2018-02-24T16:44:29.531Z,7.20
2018-02-24T16:46:57.087Z,10.47
2018-02-24T16:49:24.819Z,9.83
2018-02-24T16:51:52.397Z,9.07
2018-02-24T16:54:19.935Z,9.83
2018-02-24T16:56:47.491Z,15.93
2018-02-24T16:59:15.041Z,7.47
2018-02-24T17:01:42.759Z,11.73
2018-02-24T17:04:10.315Z,7.80
2018-02-24T17:06:37.870Z,10.43
2018-02-24T17:09:05.430Z,12.10
2018-02-24T17:11:32.959Z,7.03
2018-02-24T17:14:00.514Z,11.10
2018-02-24T17:16:28.054Z,10.30
2018-02-24T17:18:55.610Z,9.57
2018-02-24T17:21:23.155Z,12.40
2018-02-24T17:23:50.725Z,10.57
2018-02-24T17:26:18.259Z,7.40
2018-02-24T17:28:45.849Z,7.60
2018-02-24T17:31:13.390Z,11.70
2018-02-24T17:33:40.962Z,9.00
2018-02-24T17:36:08.503Z,14.23
2018-02-24T17:38:36.097Z,9.07
2018-02-24T17:41:03.759Z,11.67
2018-02-24T17:43:31.319Z,6.03
2018-02-24T17:45:59.247Z,7.93
2018-02-24T17:48:26.799Z,11.53
2018-02-24T17:50:54.322Z,10.30
2018-02-24T17:53:21.902Z,10.77
2018-02-24T17:55:49.431Z,5.60
2018-02-24T17:58:17.004Z,10.30
2018-02-24T18:00:44.561Z,8.63
2018-02-24T18:03:12.119Z,10.37
2018-02-24T18:05:39.652Z,9.13
2018-02-24T18:08:07.211Z,12.63
2018-02-24T18:10:34.744Z,14.83
2018-02-24T18:13:02.307Z,13.90
2018-02-24T18:15:29.855Z,10.17
2018-02-24T18:17:57.857Z,11.50
2018-02-24T18:20:25.543Z,8.17
2018-02-24T18:22:53.117Z,10.00
2018-02-24T18:25:20.640Z,5.47
2018-02-24T18:27:48.186Z,9.27
2018-02-24T18:30:15.839Z,9.03
2018-02-24T18:32:43.523Z,11.97
2018-02-24T18:35:11.082Z,12.63
2018-02-24T18:37:38.710Z,26.70
2018-02-24T18:40:06.352Z,10.87
2018-02-24T18:42:33.883Z,8.20
2018-02-24T18:45:01.834Z,9.43
2018-02-24T18:47:29.463Z,12.77
2018-02-24T18:49:57.044Z,11.73
2018-02-24T18:52:24.579Z,12.27
2018-02-24T18:54:52.148Z,8.00
2018-02-24T18:57:21.028Z,10.77
2018-02-24T18:59:48.616Z,8.60
2018-02-24T19:02:16.615Z,12.03
2018-02-24T19:04:44.277Z,8.90
2018-02-24T19:07:11.916Z,7.90
2018-02-24T19:09:39.487Z,9.70
2018-02-24T19:12:07.023Z,12.37
2018-02-24T19:14:34.579Z,8.07
2018-02-24T19:17:02.119Z,7.97
2018-02-24T19:19:30.107Z,6.80
2018-02-24T19:21:57.654Z,7.10
2018-02-24T19:24:25.244Z,6.20
2018-02-24T19:26:52.780Z,7.27
2018-02-24T19:29:20.357Z,9.10
2018-02-24T19:31:47.901Z,9.50
2018-02-24T19:34:15.484Z,9.77
2018-02-24T19:36:43.007Z,5.53
2018-02-24T19:39:10.580Z,11.83
2018-02-24T19:41:38.222Z,9.13
2018-02-24T19:44:05.879Z,7.97
2018-02-24T19:46:33.431Z,8.33
2018-02-24T19:49:01.003Z,11.77
2018-02-24T19:51:28.560Z,5.47
2018-02-24T19:53:56.188Z,8.33
2018-02-24T19:56:23.773Z,5.20
2018-02-24T19:58:51.314Z,12.40
2018-02-24T20:01:18.873Z,11.00
2018-02-24T20:03:46.426Z,9.47
2018-02-24T20:06:13.991Z,19.20
2018-02-24T20:08:41.519Z,7.43
2018-02-24T20:11:09.074Z,11.27
2018-02-24T20:13:36.623Z,11.27
2018-02-24T20:16:04.179Z,9.83
2018-02-24T20:18:31.728Z,10.53
2018-02-24T20:20:59.333Z,18.20
2018-02-24T20:23:26.900Z,12.53
2018-02-24T20:25:54.424Z,6.47
2018-02-24T20:28:21.961Z,11.10
2018-02-24T20:30:49.528Z,6.67
2018-02-24T20:33:17.071Z,9.50
2018-02-24T20:35:45.160Z,8.70
2018-02-24T20:38:12.715Z,13.43
2018-02-24T20:40:40.370Z,9.20
2018-02-24T20:43:07.910Z,11.90
2018-02-24T20:45:35.487Z,10.50
2018-02-24T20:48:03.064Z,10.60
2018-02-24T20:50:30.624Z,7.53
2018-02-24T20:52:58.185Z,12.33
2018-02-24T20:55:26.679Z,15.57
2018-02-24T20:57:54.681Z,11.67
2018-02-24T21:00:22.352Z,10.80
2018-02-24T21:02:49.901Z,7.47
2018-02-24T21:05:17.483Z,6.77
2018-02-24T21:07:45.015Z,7.70
2018-02-24T21:10:12.779Z,5.83
2018-02-24T21:12:40.357Z,7.83
2018-02-24T21:15:07.950Z,12.40
2018-02-24T21:17:36.063Z,8.20
2018-02-24T21:20:05.880Z,13.33
2018-02-24T21:22:35.636Z,10.80
2018-02-24T21:25:03.487Z,5.37
2018-02-24T21:27:33.881Z,12.57
2018-02-24T21:30:02.472Z,8.37
2018-02-24T21:32:36.458Z,10.90
2018-02-24T21:35:04.838Z,10.60
2018-02-24T21:37:36.503Z,11.17
2018-02-24T21:40:06.771Z,5.30
2018-02-24T21:42:38.769Z,10.47
2018-02-24T21:45:06.760Z,7.27
2018-02-24T21:47:36.150Z,9.27
2018-02-24T21:50:04.107Z,5.97
2018-02-24T21:52:31.757Z,9.77
2018-02-24T21:54:59.302Z,13.70
2018-02-24T21:57:26.876Z,8.10
2018-02-24T21:59:54.418Z,15.03
2018-02-24T22:02:22.150Z,7.57
2018-02-24T22:04:49.700Z,8.43
2018-02-24T22:07:17.254Z,8.13
2018-02-24T22:09:44.974Z,6.80
2018-02-24T22:12:12.935Z,9.30
2018-02-24T22:14:40.468Z,8.73
2018-02-24T22:17:08.028Z,8.47
2018-02-24T22:19:35.863Z,9.43
2018-02-24T22:22:03.425Z,6.77
2018-02-24T22:24:31.039Z,6.40
2018-02-24T22:26:58.991Z,4.83
2018-02-24T22:29:26.531Z,7.97
2018-02-24T22:31:54.103Z,7.17
2018-02-24T22:34:22.046Z,17.60
2018-02-24T22:36:49.634Z,9.93
2018-02-24T22:39:17.707Z,7.03
2018-02-24T22:41:45.981Z,8.73
2018-02-24T22:44:13.908Z,5.57
2018-02-24T22:46:41.570Z,5.47
2018-02-24T22:49:09.243Z,4.97
2018-02-24T22:51:36.799Z,5.37
2018-02-24T22:54:04.408Z,8.00
2018-02-24T22:56:31.995Z,7.53
2018-02-24T22:58:59.532Z,7.37
2018-02-24T23:01:27.091Z,7.80
2018-02-24T23:03:54.734Z,5.63
2018-02-24T23:06:22.265Z,6.17
2018-02-24T23:08:49.899Z,5.57
2018-02-24T23:11:17.862Z,6.17
2018-02-24T23:13:45.564Z,6.13
2018-02-24T23:16:13.099Z,4.23
2018-02-24T23:18:40.839Z,7.40
2018-02-24T23:21:08.939Z,8.43
2018-02-24T23:23:36.614Z,7.37
2018-02-24T23:26:04.186Z,8.63
2018-02-24T23:28:31.835Z,4.17
2018-02-24T23:31:00.015Z,5.27
2018-02-24T23:33:27.580Z,4.73
2018-02-24T23:35:55.131Z,7.50
2018-02-24T23:38:22.771Z,7.17
2018-02-24T23:40:50.307Z,8.07
2018-02-24T23:43:18.007Z,6.97
2018-02-24T23:45:45.608Z,6.33
2018-02-24T23:48:13.603Z,8.97
2018-02-24T23:50:41.139Z,9.60
2018-02-24T23:53:09.119Z,7.30
2018-02-24T23:55:36.791Z,5.90
2018-02-24T23:58:04.639Z,6.10
